Time;durP1;ratioP1;P1;durP2;ratioP2;P2;SDS_P1;SDS_P2;PMS_P1;PMS_P2;Temp;Humidity;BMP_temperature;BMP_pressure;BME280_temperature;BME280_humidity;BME280_pressure;Samples;Min_cycle;Max_cycle;Signal;HPM_P1;HPM_P2
2023/01/25 00:02:05;;;;;;;26.13;12.07;;;1.20;99.90;;;;;;5076158;28;20036;-37
2023/01/25 00:04:31;;;;;;;25.10;10.68;;;1.20;99.90;;;;;;5064752;28;20036;-37
2023/01/25 00:06:57;;;;;;;31.85;12.65;;;1.20;99.90;;;;;;5078534;28;20032;-33
2023/01/25 00:09:23;;;;;;;27.92;12.10;;;1.20;99.90;;;;;;5081398;28;20047;-37
2023/01/25 00:11:50;;;;;;;25.80;11.55;;;1.20;99.90;;;;;;5083660;28;20028;-36
2023/01/25 00:14:16;;;;;;;26.67;11.68;;;1.20;99.90;;;;;;5079809;28;20036;-37
2023/01/25 00:16:42;;;;;;;20.30;9.50;;;1.20;99.90;;;;;;5089049;28;20043;-37
2023/01/25 00:19:09;;;;;;;26.02;11.82;;;1.20;99.90;;;;;;5089173;28;20031;-32
2023/01/25 00:21:35;;;;;;;21.92;11.32;;;1.30;99.90;;;;;;5079791;28;20036;-36
2023/01/25 00:24:02;;;;;;;25.25;11.50;;;1.20;99.90;;;;;;5083045;28;20023;-32
2023/01/25 00:26:34;;;;;;;28.85;10.80;;;1.20;99.90;;;;;;5085906;28;20073;-36
2023/01/25 00:29:01;;;;;;;25.40;11.20;;;1.20;99.90;;;;;;5085145;28;20425;-37
2023/01/25 00:35:05;;;;;;;26.52;10.93;;;1.20;99.90;;;;;;5074378;28;20062;-38
2023/01/25 00:37:50;;;;;;;25.63;10.43;;;1.20;99.90;;;;;;5026783;28;20028;-27
2023/01/25 00:40:16;;;;;;;23.05;9.15;;;1.30;99.90;;;;;;5051736;28;20024;-34
2023/01/25 00:42:42;;;;;;;25.92;10.85;;;1.30;99.90;;;;;;5082356;28;20028;-36
2023/01/25 00:45:10;;;;;;;24.20;11.20;;;1.30;99.90;;;;;;5081004;28;20036;-34
2023/01/25 00:47:35;;;;;;;21.70;9.02;;;1.20;99.90;;;;;;5079770;28;20043;-36
2023/01/25 00:50:01;;;;;;;24.80;10.20;;;1.30;99.90;;;;;;5076514;28;20717;-45
2023/01/25 00:52:28;;;;;;;20.13;9.13;;;1.30;99.90;;;;;;5068228;28;20783;-33
2023/01/25 00:54:54;;;;;;;17.67;8.02;;;1.30;99.90;;;;;;5062896;28;20032;-28
2023/01/25 00:57:19;;;;;;;22.02;10.50;;;1.30;99.90;;;;;;5061495;28;20227;-32
2023/01/25 00:59:46;;;;;;;21.42;8.82;;;1.30;99.90;;;;;;5062122;28;20028;-37
2023/01/25 01:02:12;;;;;;;20.77;10.90;;;1.30;99.90;;;;;;5080431;28;20111;-35
2023/01/25 01:04:38;;;;;;;22.50;9.63;;;1.30;99.90;;;;;;5085459;28;20081;-35
2023/01/25 01:10:44;;;;;;;20.85;9.05;;;1.30;99.90;;;;;;4886340;28;20595;-31
2023/01/25 01:19:35;;;;;;;18.35;9.30;;;1.30;99.90;;;;;;5065862;28;20027;-37
2023/01/25 01:22:01;;;;;;;21.88;9.70;;;1.30;99.90;;;;;;5043949;28;20020;-33
2023/01/25 01:24:27;;;;;;;26.70;11.32;;;1.30;99.90;;;;;;5040415;28;20039;-30
2023/01/25 01:26:52;;;;;;;16.75;8.25;;;1.30;99.90;;;;;;5041978;28;20135;-37
2023/01/25 01:29:18;;;;;;;20.30;9.40;;;1.30;99.90;;;;;;5043317;28;20047;-36
2023/01/25 01:31:44;;;;;;;24.58;9.98;;;1.30;99.90;;;;;;5061694;28;20032;-37
2023/01/25 01:34:13;;;;;;;18.38;8.73;;;1.30;99.90;;;;;;5058703;28;20032;-33
2023/01/25 01:36:39;;;;;;;26.67;11.45;;;1.30;99.90;;;;;;5060222;28;20021;-32
2023/01/25 01:39:04;;;;;;;20.00;9.80;;;1.40;99.90;;;;;;5059312;28;20021;-37
2023/01/25 01:41:30;;;;;;;26.55;10.45;;;1.30;99.90;;;;;;5041456;28;20106;-33
2023/01/25 01:43:56;;;;;;;24.15;10.70;;;1.40;99.90;;;;;;5039046;28;20106;-34
2023/01/25 01:46:27;;;;;;;25.67;9.48;;;1.30;99.90;;;;;;5041490;28;20242;-34
2023/01/25 01:49:19;;;;;;;23.85;10.75;;;1.30;99.90;;;;;;5040101;28;20033;-36
2023/01/25 01:51:51;;;;;;;22.77;10.15;;;1.30;99.90;;;;;;5039741;28;20044;-32
2023/01/25 01:54:20;;;;;;;26.08;10.60;;;1.30;99.90;;;;;;5023960;28;20456;-35
2023/01/25 01:57:17;;;;;;;24.77;10.90;;;1.30;99.90;;;;;;5039108;28;20028;-37
2023/01/25 01:59:48;;;;;;;24.63;10.43;;;1.30;99.90;;;;;;5037781;28;20053;-29
2023/01/25 02:02:15;;;;;;;23.90;10.10;;;1.40;99.90;;;;;;5040518;28;20044;-31
2023/01/25 02:04:44;;;;;;;27.80;10.98;;;1.40;99.90;;;;;;5044832;28;20506;-33
2023/01/25 02:07:21;;;;;;;21.77;9.18;;;1.40;99.90;;;;;;5041795;28;20032;-30
2023/01/25 02:09:49;;;;;;;19.90;8.57;;;1.40;99.90;;;;;;5043396;28;20044;-33
2023/01/25 02:12:16;;;;;;;20.30;9.48;;;1.40;99.90;;;;;;5041826;28;20036;-33
2023/01/25 02:14:49;;;;;;;23.40;10.13;;;1.40;99.90;;;;;;5040029;28;20083;-30
2023/01/25 02:17:17;;;;;;;23.02;10.15;;;1.50;99.90;;;;;;5043476;28;20032;-31
2023/01/25 02:20:13;;;;;;;26.50;10.57;;;1.50;99.90;;;;;;5019775;28;20167;-33
2023/01/25 02:23:02;;;;;;;23.88;10.38;;;1.40;99.90;;;;;;5042042;28;20632;-30
2023/01/25 02:25:28;;;;;;;22.35;10.32;;;1.40;99.90;;;;;;5041124;28;20656;-33
2023/01/25 02:27:59;;;;;;;26.13;10.70;;;1.40;99.90;;;;;;5048734;28;20543;-32
2023/01/25 02:30:26;;;;;;;22.02;10.73;;;1.40;99.90;;;;;;5054329;28;20029;-37
2023/01/25 02:32:51;;;;;;;19.92;10.32;;;1.40;99.90;;;;;;5061489;28;20041;-29
2023/01/25 02:35:38;;;;;;;21.45;8.85;;;1.40;99.90;;;;;;5060036;28;20055;-30
2023/01/25 02:38:06;;;;;;;22.25;9.77;;;1.40;99.90;;;;;;5059578;28;20040;-32
2023/01/25 02:40:37;;;;;;;22.48;9.25;;;1.30;99.90;;;;;;5058988;28;20386;-30
2023/01/25 02:43:02;;;;;;;20.77;8.93;;;1.40;99.90;;;;;;5057785;28;20075;-30
2023/01/25 02:45:29;;;;;;;21.10;8.82;;;1.40;99.90;;;;;;5056639;28;20025;-30
2023/01/25 02:47:55;;;;;;;23.95;9.15;;;1.30;99.90;;;;;;5057296;28;20119;-30
2023/01/25 02:50:20;;;;;;;23.92;8.60;;;1.40;99.90;;;;;;5059007;28;20123;-30
2023/01/25 02:52:46;;;;;;;28.23;10.90;;;1.30;99.90;;;;;;5056174;28;20037;-30
2023/01/25 02:55:12;;;;;;;25.05;10.20;;;1.30;99.90;;;;;;5057540;28;20060;-35
2023/01/25 02:57:37;;;;;;;21.08;10.68;;;1.30;99.90;;;;;;5059777;28;20040;-29
2023/01/25 03:00:04;;;;;;;24.27;10.70;;;1.30;99.90;;;;;;5061999;28;20025;-30
2023/01/25 03:02:30;;;;;;;18.70;8.68;;;1.30;99.90;;;;;;5062049;28;20040;-34
2023/01/25 03:04:56;;;;;;;24.13;9.52;;;1.30;99.90;;;;;;5038040;28;20024;-29
2023/01/25 03:07:21;;;;;;;21.88;9.57;;;1.30;99.90;;;;;;5059616;28;20028;-34
2023/01/25 03:09:47;;;;;;;20.52;9.50;;;1.30;99.90;;;;;;5079935;28;20036;-30
2023/01/25 03:12:13;;;;;;;24.65;9.73;;;1.30;99.90;;;;;;5080198;28;20040;-30
2023/01/25 03:14:38;;;;;;;23.05;9.02;;;1.30;99.90;;;;;;5075733;28;20397;-30
2023/01/25 03:17:04;;;;;;;26.58;11.57;;;1.30;99.90;;;;;;5083788;28;20118;-29
2023/01/25 03:19:29;;;;;;;23.42;9.82;;;1.30;99.90;;;;;;5081245;28;20024;-31
2023/01/25 03:21:55;;;;;;;26.60;10.13;;;1.30;99.90;;;;;;5082357;28;20514;-31
2023/01/25 03:24:20;;;;;;;23.92;9.73;;;1.40;99.90;;;;;;5081897;28;20105;-30
2023/01/25 03:29:32;;;;;;;28.17;11.15;;;1.30;99.90;;;;;;5077700;28;20082;-31
2023/01/25 03:31:57;;;;;;;29.42;11.43;;;1.30;99.90;;;;;;5080999;28;20036;-30
2023/01/25 03:34:23;;;;;;;26.83;11.07;;;1.30;99.90;;;;;;5079963;28;20116;-29
2023/01/25 03:36:49;;;;;;;25.98;10.57;;;1.30;99.90;;;;;;5063371;28;20028;-35
2023/01/25 03:39:14;;;;;;;24.30;8.77;;;1.30;99.90;;;;;;5074200;28;20032;-31
2023/01/25 03:41:40;;;;;;;23.48;9.02;;;1.30;99.90;;;;;;5081093;28;20544;-30
2023/01/25 03:44:05;;;;;;;24.73;9.10;;;1.30;99.90;;;;;;5085804;28;20103;-30
2023/01/25 03:46:31;;;;;;;22.58;9.45;;;1.30;99.90;;;;;;5074142;28;20028;-31
2023/01/25 03:48:56;;;;;;;22.73;9.05;;;1.30;99.90;;;;;;5087258;28;20028;-30
2023/01/25 03:51:22;;;;;;;19.08;8.65;;;1.30;99.90;;;;;;5085050;28;20085;-33
2023/01/25 03:53:48;;;;;;;15.82;6.55;;;1.30;99.90;;;;;;5083934;28;20041;-33
2023/01/25 03:56:18;;;;;;;18.52;8.35;;;1.30;99.90;;;;;;5081162;28;20464;-30
2023/01/25 03:58:44;;;;;;;22.88;8.15;;;1.30;99.90;;;;;;5079941;28;20397;-30
2023/01/25 04:01:10;;;;;;;24.13;8.50;;;1.30;99.90;;;;;;5077469;28;20032;-30
2023/01/25 04:03:35;;;;;;;26.17;8.68;;;1.30;99.90;;;;;;5056491;28;20021;-30
2023/01/25 04:06:02;;;;;;;19.38;8.07;;;1.30;99.90;;;;;;5078454;28;20040;-32
2023/01/25 04:08:28;;;;;;;20.92;8.85;;;1.20;99.90;;;;;;5082826;28;20048;-32
2023/01/25 04:11:00;;;;;;;21.27;10.02;;;1.30;99.90;;;;;;5088894;28;20046;-31
2023/01/25 04:13:26;;;;;;;19.10;8.98;;;1.30;99.90;;;;;;5075237;28;20031;-29
2023/01/25 04:15:52;;;;;;;21.05;8.02;;;1.30;99.90;;;;;;5074150;28;20439;-30
2023/01/25 04:18:18;;;;;;;21.95;9.45;;;1.30;99.90;;;;;;5062418;28;20128;-32
2023/01/25 04:20:44;;;;;;;22.33;9.27;;;1.20;99.90;;;;;;5063740;28;20028;-33
2023/01/25 04:23:11;;;;;;;18.50;8.23;;;1.20;99.90;;;;;;5061705;28;20054;-33
2023/01/25 04:25:37;;;;;;;22.92;8.77;;;1.20;99.90;;;;;;5066135;28;20032;-32
2023/01/25 04:28:04;;;;;;;24.70;10.18;;;1.20;99.90;;;;;;5063757;28;20040;-33
2023/01/25 04:30:29;;;;;;;23.75;8.85;;;1.10;99.90;;;;;;5042565;28;20062;-32
2023/01/25 04:32:55;;;;;;;43.20;14.32;;;1.20;99.90;;;;;;5063443;28;20040;-35
2023/01/25 04:35:21;;;;;;;24.83;9.75;;;1.10;99.90;;;;;;5063953;28;21272;-33
2023/01/25 04:37:54;;;;;;;171.40;48.80;;;1.10;99.90;;;;;;5063484;28;20031;-32
2023/01/25 04:40:19;;;;;;;28.38;11.60;;;1.10;99.90;;;;;;5043523;28;20032;-30
2023/01/25 04:42:45;;;;;;;21.55;9.00;;;1.10;99.90;;;;;;5061036;28;20123;-31
2023/01/25 04:45:10;;;;;;;20.70;9.23;;;1.10;99.90;;;;;;5064773;28;20115;-37
2023/01/25 04:47:36;;;;;;;20.63;8.40;;;1.10;99.90;;;;;;5045396;28;20141;-33
2023/01/25 04:50:02;;;;;;;18.73;8.60;;;1.10;99.90;;;;;;5064264;28;20033;-31
2023/01/25 04:52:27;;;;;;;22.80;9.07;;;1.00;99.90;;;;;;5061428;28;20497;-37
2023/01/25 04:54:53;;;;;;;15.48;7.70;;;1.00;99.90;;;;;;5062350;28;20438;-34
2023/01/25 04:57:18;;;;;;;19.40;8.25;;;1.00;99.90;;;;;;5041354;28;20076;-31
2023/01/25 04:59:44;;;;;;;17.40;8.20;;;1.00;99.90;;;;;;5062207;28;20043;-30
2023/01/25 05:02:10;;;;;;;20.85;8.05;;;1.00;99.90;;;;;;5061493;28;20093;-31
2023/01/25 05:04:36;;;;;;;18.35;8.45;;;0.90;99.90;;;;;;5063959;28;20028;-39
2023/01/25 05:07:01;;;;;;;21.50;9.00;;;0.90;99.90;;;;;;5086266;28;20406;-30
2023/01/25 05:09:27;;;;;;;24.05;9.75;;;1.00;99.90;;;;;;5081058;28;20071;-31
2023/01/25 05:11:53;;;;;;;17.63;7.90;;;0.90;99.90;;;;;;5085043;28;20028;-31
2023/01/25 05:14:18;;;;;;;22.23;9.27;;;0.90;99.90;;;;;;5075747;28;20032;-30
2023/01/25 05:16:44;;;;;;;20.25;8.85;;;1.00;99.90;;;;;;5081573;28;20691;-30
2023/01/25 05:19:10;;;;;;;22.00;9.02;;;1.00;99.90;;;;;;5074386;28;20392;-30
2023/01/25 05:24:19;;;;;;;21.10;8.30;;;0.90;99.90;;;;;;5076289;28;20165;-30
2023/01/25 05:27:00;;;;;;;19.30;7.72;;;0.90;99.90;;;;;;5081683;28;20485;-31
2023/01/25 05:29:29;;;;;;;22.63;8.77;;;0.90;99.90;;;;;;5084519;28;20024;-31
2023/01/25 05:31:55;;;;;;;21.98;9.52;;;0.90;99.90;;;;;;5088907;28;20076;-30
2023/01/25 05:34:21;;;;;;;22.65;8.00;;;0.90;99.90;;;;;;5080905;28;20107;-31
2023/01/25 05:36:46;;;;;;;24.63;11.82;;;0.90;99.90;;;;;;5088881;28;20677;-30
2023/01/25 05:39:12;;;;;;;23.08;8.73;;;0.90;99.90;;;;;;5080950;28;20473;-30
2023/01/25 05:41:38;;;;;;;26.88;10.52;;;0.80;99.90;;;;;;5085924;28;20389;-33
2023/01/25 05:44:03;;;;;;;24.00;9.35;;;0.80;99.90;;;;;;5046002;28;20425;-33
2023/01/25 05:46:29;;;;;;;25.92;10.38;;;0.80;99.90;;;;;;5059479;28;20119;-30
2023/01/25 05:48:55;;;;;;;20.85;9.27;;;0.80;99.90;;;;;;5044360;28;21637;-33
2023/01/25 05:51:20;;;;;;;23.92;9.25;;;0.80;99.90;;;;;;5061550;28;20031;-33
2023/01/25 05:53:46;;;;;;;20.98;9.13;;;0.80;99.90;;;;;;5061998;28;20035;-32
2023/01/25 05:56:12;;;;;;;21.13;8.85;;;0.80;99.90;;;;;;5063712;28;20651;-33
2023/01/25 05:58:38;;;;;;;20.65;9.48;;;0.80;99.90;;;;;;5059791;28;21492;-34
2023/01/25 06:01:06;;;;;;;20.55;8.15;;;0.80;99.90;;;;;;5060458;28;20098;-36
2023/01/25 06:03:32;;;;;;;19.88;9.32;;;0.80;99.90;;;;;;5071650;28;20031;-31
2023/01/25 06:06:01;;;;;;;15.50;7.90;;;0.90;99.90;;;;;;5073575;28;20344;-34
2023/01/25 06:08:28;;;;;;;24.42;9.65;;;0.90;99.90;;;;;;5078893;28;20043;-31
2023/01/25 06:10:53;;;;;;;20.85;8.60;;;0.90;99.90;;;;;;5078415;28;20035;-30
2023/01/25 06:13:21;;;;;;;22.67;8.15;;;0.90;99.90;;;;;;5060610;28;20036;-32
2023/01/25 06:15:56;;;;;;;21.02;8.40;;;0.90;99.90;;;;;;5073451;28;20097;-33
2023/01/25 06:18:25;;;;;;;16.10;7.93;;;0.90;99.90;;;;;;5078698;28;20033;-32
2023/01/25 06:20:51;;;;;;;21.88;9.65;;;0.90;99.90;;;;;;5078371;28;20504;-30
2023/01/25 06:23:17;;;;;;;20.40;9.10;;;0.90;99.90;;;;;;5075948;28;20024;-34
2023/01/25 06:25:42;;;;;;;25.10;9.43;;;0.90;99.90;;;;;;5083193;28;20059;-30
2023/01/25 06:28:08;;;;;;;19.25;8.45;;;0.80;99.90;;;;;;5079199;28;20031;-32
2023/01/25 06:30:34;;;;;;;23.00;9.20;;;0.80;99.90;;;;;;5077917;28;20034;-30
2023/01/25 06:33:00;;;;;;;22.45;9.13;;;0.80;99.90;;;;;;5076868;28;20024;-30
2023/01/25 06:35:27;;;;;;;20.17;9.13;;;0.80;99.90;;;;;;5073777;28;20036;-31
2023/01/25 06:37:57;;;;;;;24.75;8.80;;;0.70;99.90;;;;;;5079413;28;20047;-30
2023/01/25 06:40:23;;;;;;;16.83;8.77;;;0.70;99.90;;;;;;5064409;28;20036;-29
2023/01/25 06:42:48;;;;;;;18.65;8.70;;;0.70;99.90;;;;;;5079957;28;20490;-31
2023/01/25 06:45:14;;;;;;;23.67;9.35;;;0.70;99.90;;;;;;5071126;28;20039;-33
2023/01/25 06:47:40;;;;;;;17.35;8.43;;;0.70;99.90;;;;;;5064291;28;20038;-31
2023/01/25 06:50:06;;;;;;;18.02;8.57;;;0.70;99.90;;;;;;5083318;28;20112;-29
2023/01/25 06:52:35;;;;;;;19.52;8.75;;;0.70;99.90;;;;;;5076962;28;20042;-30
2023/01/25 06:55:02;;;;;;;15.93;8.50;;;0.70;99.90;;;;;;5075211;28;20670;-33
2023/01/25 06:57:28;;;;;;;19.88;8.15;;;0.70;99.90;;;;;;5072097;28;20465;-30
2023/01/25 06:59:54;;;;;;;19.95;8.95;;;0.80;99.90;;;;;;5087819;28;20107;-29
2023/01/25 07:02:19;;;;;;;22.77;9.48;;;0.70;99.90;;;;;;5085250;28;20041;-32
2023/01/25 07:04:45;;;;;;;23.42;9.20;;;0.80;99.90;;;;;;5086113;28;20505;-32
2023/01/25 07:07:11;;;;;;;20.15;8.25;;;0.80;99.90;;;;;;5064329;28;20385;-29
2023/01/25 07:09:36;;;;;;;18.83;7.32;;;0.80;99.90;;;;;;5065856;28;20048;-30
2023/01/25 07:12:05;;;;;;;15.18;7.43;;;0.80;99.90;;;;;;5066214;28;20412;-33
2023/01/25 07:14:31;;;;;;;15.18;7.50;;;0.80;99.90;;;;;;5070613;28;20015;-33
2023/01/25 07:16:57;;;;;;;14.43;7.20;;;0.80;99.90;;;;;;5082329;28;20036;-29
2023/01/25 07:19:23;;;;;;;18.20;8.57;;;0.80;99.90;;;;;;5085415;28;20484;-29
2023/01/25 07:21:49;;;;;;;17.25;6.78;;;0.80;99.90;;;;;;5079754;28;20030;-31
2023/01/25 07:24:17;;;;;;;17.83;7.50;;;0.80;99.90;;;;;;5081503;28;20106;-31
2023/01/25 07:26:43;;;;;;;16.60;7.47;;;0.80;99.90;;;;;;5067551;28;20043;-30
2023/01/25 07:29:14;;;;;;;15.98;7.10;;;0.80;99.90;;;;;;5063660;28;20094;-33
2023/01/25 07:31:41;;;;;;;15.88;6.95;;;0.80;99.90;;;;;;5065230;28;20084;-34
2023/01/25 07:34:09;;;;;;;16.65;8.52;;;0.80;99.90;;;;;;5077212;28;20122;-30
2023/01/25 07:36:36;;;;;;;17.60;7.32;;;0.70;99.90;;;;;;5084818;28;20123;-31
2023/01/25 07:39:01;;;;;;;15.98;8.00;;;0.70;99.90;;;;;;5083074;28;20444;-29
2023/01/25 07:41:27;;;;;;;16.88;7.65;;;0.70;99.90;;;;;;5078591;28;20052;-29
2023/01/25 07:43:53;;;;;;;18.85;7.85;;;0.70;99.90;;;;;;5080450;28;20056;-30
2023/01/25 07:46:19;;;;;;;15.18;6.32;;;0.70;99.90;;;;;;5078865;28;20418;-30
2023/01/25 07:48:47;;;;;;;16.77;6.10;;;0.70;99.90;;;;;;5084753;28;20016;-32
2023/01/25 07:51:23;;;;;;;19.40;7.43;;;0.70;99.90;;;;;;5082195;28;20020;-30
2023/01/25 07:53:58;;;;;;;15.90;6.43;;;0.70;99.90;;;;;;5090103;28;20669;-31
2023/01/25 07:56:36;;;;;;;16.80;7.82;;;0.70;99.90;;;;;;5080774;28;20055;-30
2023/01/25 07:59:03;;;;;;;19.58;9.02;;;0.70;99.90;;;;;;5078147;28;20082;-32
2023/01/25 08:01:32;;;;;;;26.95;10.25;;;0.70;99.90;;;;;;5080192;28;20032;-30
2023/01/25 08:03:59;;;;;;;35.63;13.18;;;0.80;99.90;;;;;;5082440;28;20089;-31
2023/01/25 08:06:34;;;;;;;55.55;18.88;;;0.80;99.90;;;;;;5085847;28;20035;-30
2023/01/25 08:09:02;;;;;;;18.27;8.85;;;0.80;99.90;;;;;;5082533;28;20063;-29
2023/01/25 08:11:30;;;;;;;19.87;9.83;;;0.80;99.90;;;;;;5087067;28;20052;-30
2023/01/25 08:13:56;;;;;;;19.70;8.70;;;0.80;99.90;;;;;;5084321;28;20281;-30
2023/01/25 08:16:26;;;;;;;13.98;7.00;;;0.80;99.90;;;;;;5084438;28;20493;-30
2023/01/25 08:18:54;;;;;;;17.63;7.03;;;0.80;99.90;;;;;;5082421;28;20048;-29
2023/01/25 08:21:20;;;;;;;17.98;7.43;;;0.80;99.90;;;;;;5082209;28;20094;-30
2023/01/25 08:23:46;;;;;;;19.50;7.93;;;0.80;99.90;;;;;;5083206;28;20082;-30
2023/01/25 08:26:14;;;;;;;19.10;7.88;;;0.80;99.90;;;;;;5083771;28;20024;-30
2023/01/25 08:28:39;;;;;;;16.63;7.28;;;0.80;99.90;;;;;;5079466;28;20040;-31
2023/01/25 08:31:07;;;;;;;21.65;7.03;;;0.80;99.90;;;;;;5086819;28;20089;-34
2023/01/25 08:33:33;;;;;;;17.83;8.30;;;0.90;99.90;;;;;;5081267;28;20035;-30
2023/01/25 08:35:59;;;;;;;23.10;10.25;;;0.90;99.90;;;;;;5080645;28;20024;-33
2023/01/25 08:38:25;;;;;;;19.88;8.85;;;0.80;99.90;;;;;;5085665;28;20440;-34
2023/01/25 08:40:50;;;;;;;20.15;7.95;;;0.80;99.90;;;;;;5085100;28;20130;-31
2023/01/25 08:43:16;;;;;;;16.67;8.40;;;0.80;99.90;;;;;;5079994;28;20024;-31
2023/01/25 08:45:42;;;;;;;29.40;9.75;;;0.80;99.90;;;;;;5081041;28;20265;-34
2023/01/25 08:48:07;;;;;;;24.15;10.18;;;0.80;99.90;;;;;;5078845;28;20028;-33
2023/01/25 08:50:33;;;;;;;25.48;10.10;;;0.70;99.90;;;;;;5085254;28;20383;-30
2023/01/25 08:52:59;;;;;;;22.10;9.40;;;0.70;99.90;;;;;;5077586;28;20162;-30
2023/01/25 08:55:24;;;;;;;23.80;10.45;;;0.70;99.90;;;;;;5078571;28;20374;-30
2023/01/25 08:57:50;;;;;;;22.42;9.48;;;0.70;99.90;;;;;;5079418;28;20035;-36
2023/01/25 09:00:16;;;;;;;21.40;8.63;;;0.70;99.90;;;;;;5084719;28;20526;-31
2023/01/25 09:02:42;;;;;;;21.63;8.30;;;0.70;99.90;;;;;;5090566;28;20039;-30
2023/01/25 09:05:08;;;;;;;16.92;7.90;;;0.70;99.90;;;;;;5078236;28;20111;-33
2023/01/25 09:07:37;;;;;;;23.45;9.73;;;0.70;99.90;;;;;;5083051;28;20036;-29
2023/01/25 09:10:07;;;;;;;15.45;7.05;;;0.70;99.90;;;;;;5084430;28;20040;-31
2023/01/25 09:12:36;;;;;;;22.95;9.35;;;0.70;99.90;;;;;;5079957;28;20028;-31
2023/01/25 09:15:02;;;;;;;22.58;9.07;;;0.70;99.90;;;;;;5063621;28;20028;-33
2023/01/25 09:17:28;;;;;;;18.52;8.65;;;0.70;99.90;;;;;;5051026;28;20036;-30
2023/01/25 09:19:54;;;;;;;28.65;11.02;;;0.70;99.90;;;;;;5080884;28;20078;-30
2023/01/25 09:22:19;;;;;;;29.75;11.98;;;0.70;99.90;;;;;;5082002;28;20028;-31
2023/01/25 09:24:45;;;;;;;23.05;9.50;;;0.60;99.90;;;;;;5083463;28;20070;-38
2023/01/25 09:27:10;;;;;;;22.10;9.13;;;0.60;99.90;;;;;;5066395;28;20053;-31
2023/01/25 09:29:36;;;;;;;24.23;9.40;;;0.60;99.90;;;;;;5082497;28;20047;-31
2023/01/25 09:32:02;;;;;;;22.50;8.57;;;0.60;99.90;;;;;;5079342;28;20036;-30
2023/01/25 09:34:28;;;;;;;25.65;9.52;;;0.60;99.90;;;;;;5062837;28;20024;-34
2023/01/25 09:36:53;;;;;;;18.70;8.07;;;0.70;99.90;;;;;;5077482;28;20027;-32
2023/01/25 09:39:19;;;;;;;18.98;8.50;;;0.70;99.90;;;;;;5092132;28;20020;-30
2023/01/25 09:42:08;;;;;;;17.00;6.82;;;0.70;99.90;;;;;;5080803;28;20090;-35
2023/01/25 09:44:52;;;;;;;19.92;8.27;;;0.70;99.90;;;;;;5075681;28;21834;-31
2023/01/25 09:47:55;;;;;;;14.93;6.03;;;0.70;99.90;;;;;;5074657;28;20032;-34
2023/01/25 09:50:20;;;;;;;16.95;8.13;;;0.80;99.90;;;;;;5078956;28;20025;-32
2023/01/25 09:53:03;;;;;;;16.65;7.03;;;0.70;99.90;;;;;;5058481;28;20046;-31
2023/01/25 09:55:30;;;;;;;17.73;8.27;;;0.70;99.90;;;;;;5077698;28;20099;-31
2023/01/25 09:58:00;;;;;;;20.83;8.75;;;0.70;99.90;;;;;;5081403;28;20028;-30
2023/01/25 10:00:25;;;;;;;17.90;8.43;;;0.70;99.90;;;;;;5084940;28;20028;-31
2023/01/25 10:03:19;;;;;;;20.10;8.73;;;0.70;99.90;;;;;;5085659;28;20369;-30
2023/01/25 10:05:47;;;;;;;16.75;7.22;;;0.70;99.90;;;;;;5088230;28;20042;-30
2023/01/25 10:08:34;;;;;;;22.52;9.45;;;0.70;99.90;;;;;;5080703;28;20036;-33
2023/01/25 10:11:30;;;;;;;19.30;8.77;;;0.70;99.90;;;;;;5078834;28;20117;-32
2023/01/25 10:13:57;;;;;;;21.42;8.60;;;0.70;99.90;;;;;;5060048;28;20043;-32
2023/01/25 10:16:31;;;;;;;24.92;9.27;;;0.70;99.90;;;;;;5073072;28;20044;-30
2023/01/25 10:19:21;;;;;;;17.70;8.07;;;0.70;99.90;;;;;;5079625;28;20386;-31
2023/01/25 10:22:02;;;;;;;25.15;9.88;;;0.60;99.90;;;;;;5061033;28;20029;-31
2023/01/25 10:24:51;;;;;;;22.40;11.10;;;0.60;99.90;;;;;;5082856;28;20020;-33
2023/01/25 10:27:54;;;;;;;22.50;9.23;;;0.60;99.90;;;;;;5084809;28;20032;-34
2023/01/25 10:30:26;;;;;;;23.33;9.23;;;0.60;99.90;;;;;;5077729;28;20032;-32
2023/01/25 10:32:56;;;;;;;22.00;9.05;;;0.60;99.90;;;;;;5078988;28;20037;-37
2023/01/25 10:35:28;;;;;;;21.98;8.85;;;0.60;99.90;;;;;;5082480;28;20375;-31
2023/01/25 10:37:56;;;;;;;21.08;7.88;;;0.70;99.90;;;;;;5067923;28;20111;-30
2023/01/25 10:40:23;;;;;;;21.02;8.38;;;0.70;99.90;;;;;;5074047;28;20048;-33
2023/01/25 10:43:15;;;;;;;19.60;7.78;;;0.70;99.90;;;;;;5081472;28;20032;-35
2023/01/25 10:45:43;;;;;;;20.20;8.95;;;0.70;99.90;;;;;;5083560;28;20095;-33
2023/01/25 10:48:14;;;;;;;23.38;9.27;;;0.70;99.90;;;;;;5081017;28;20095;-35
2023/01/25 10:50:42;;;;;;;19.73;7.03;;;0.70;99.90;;;;;;5080410;28;20031;-32
2023/01/25 10:53:25;;;;;;;18.90;8.05;;;0.70;99.90;;;;;;5072197;28;20176;-31
2023/01/25 10:56:09;;;;;;;24.83;10.07;;;0.70;99.90;;;;;;5075839;28;20395;-31
2023/01/25 10:58:45;;;;;;;23.60;8.38;;;0.80;99.90;;;;;;5073022;28;20060;-31
2023/01/25 11:01:32;;;;;;;26.08;10.05;;;0.70;99.90;;;;;;5060598;28;20047;-33
2023/01/25 11:04:00;;;;;;;18.45;7.72;;;0.70;99.90;;;;;;5072106;28;20039;-31
2023/01/25 11:06:35;;;;;;;21.45;8.40;;;0.70;99.90;;;;;;5068573;28;20118;-30
2023/01/25 11:09:20;;;;;;;23.67;9.65;;;0.60;99.90;;;;;;5082885;28;20579;-31
2023/01/25 11:12:06;;;;;;;21.83;8.20;;;0.60;99.90;;;;;;5082131;28;20040;-31
2023/01/25 11:14:32;;;;;;;24.52;8.70;;;0.60;99.90;;;;;;5079215;28;20028;-36
2023/01/25 11:17:00;;;;;;;25.40;8.38;;;0.70;99.90;;;;;;5082554;28;20488;-37
2023/01/25 11:19:36;;;;;;;22.27;8.82;;;0.70;99.90;;;;;;5073255;28;20059;-30
2023/01/25 11:22:04;;;;;;;18.95;7.10;;;0.70;99.90;;;;;;5062571;28;20108;-29
2023/01/25 11:24:32;;;;;;;22.30;8.95;;;0.70;99.90;;;;;;5081373;28;20031;-37
2023/01/25 11:27:17;;;;;;;18.63;7.80;;;0.70;99.90;;;;;;5080772;28;20043;-34
2023/01/25 11:29:45;;;;;;;21.08;8.52;;;0.70;99.90;;;;;;5074849;28;20274;-30
2023/01/25 11:32:21;;;;;;;;;;;0.70;99.90;;;;;;5078827;28;20032;-33
2023/01/25 11:34:50;;;;;;;16.02;6.97;;;0.70;99.90;;;;;;5079284;28;19918;-28
2023/01/25 11:37:40;;;;;;;18.10;7.88;;;0.80;99.90;;;;;;5078782;28;20029;-32
2023/01/25 11:40:24;;;;;;;24.75;9.32;;;0.80;99.90;;;;;;5076593;28;20048;-30
2023/01/25 11:43:01;;;;;;;17.33;8.43;;;0.80;99.90;;;;;;5077053;28;20797;-32
2023/01/25 11:45:52;;;;;;;22.10;8.50;;;0.80;99.90;;;;;;5086432;28;20035;-35
2023/01/25 11:48:48;;;;;;;19.60;8.05;;;0.80;99.90;;;;;;5084520;28;20024;-32
2023/01/25 11:51:20;;;;;;;19.77;8.45;;;0.80;99.90;;;;;;5085758;28;20419;-31
2023/01/25 11:54:00;;;;;;;19.95;9.13;;;0.70;99.90;;;;;;5078282;28;20070;-36
2023/01/25 11:56:53;;;;;;;17.30;7.22;;;0.80;99.90;;;;;;5075995;28;20035;-34
2023/01/25 11:59:39;;;;;;;19.00;8.23;;;0.80;99.90;;;;;;5076255;28;20032;-29
2023/01/25 12:02:38;;;;;;;21.98;8.18;;;0.80;99.90;;;;;;5086301;28;20540;-35
2023/01/25 12:05:27;;;;;;;22.02;8.80;;;0.80;99.90;;;;;;5088867;28;20024;-30
2023/01/25 12:08:15;;;;;;;24.48;9.73;;;0.80;99.90;;;;;;5081843;28;20429;-34
2023/01/25 12:10:52;;;;;;;26.35;9.60;;;0.80;99.90;;;;;;5079919;28;20020;-34
2023/01/25 12:13:42;;;;;;;24.13;9.10;;;0.70;99.90;;;;;;5077323;28;20111;-33
2023/01/25 12:16:26;;;;;;;21.23;7.40;;;0.60;99.90;;;;;;5083123;28;20560;-29
2023/01/25 12:19:08;;;;;;;27.10;10.23;;;0.70;99.90;;;;;;5081465;28;20044;-32
2023/01/25 12:22:03;;;;;;;18.98;8.43;;;0.70;99.90;;;;;;5080433;28;20031;-30
2023/01/25 12:24:40;;;;;;;20.80;8.73;;;0.70;99.90;;;;;;5086169;28;20085;-30
2023/01/25 12:27:52;;;;;;;20.23;8.70;;;0.70;99.90;;;;;;5077431;28;20020;-31
2023/01/25 12:30:48;;;;;;;24.60;10.32;;;0.70;99.90;;;;;;5070072;28;20454;-32
2023/01/25 12:33:59;;;;;;;21.48;8.52;;;0.70;99.90;;;;;;5086852;28;20044;-34
2023/01/25 12:36:33;;;;;;;26.50;10.70;;;0.60;99.90;;;;;;5077192;28;20020;-31
2023/01/25 12:39:03;;;;;;;26.88;9.88;;;0.60;99.90;;;;;;5083955;28;20040;-30
2023/01/25 12:41:42;;;;;;;26.45;11.45;;;0.60;99.90;;;;;;5081210;28;20016;-34
2023/01/25 12:44:19;;;;;;;19.50;8.55;;;0.60;99.90;;;;;;5082024;28;20500;-29
2023/01/25 12:47:12;;;;;;;17.85;7.90;;;0.60;99.90;;;;;;5089935;28;20035;-30
2023/01/25 12:50:03;;;;;;;18.63;7.35;;;0.60;99.90;;;;;;5085809;28;20032;-29
2023/01/25 12:52:35;;;;;;;18.83;7.95;;;0.60;99.90;;;;;;5076867;28;20028;-30
2023/01/25 12:55:11;;;;;;;25.25;8.85;;;0.60;99.90;;;;;;5081976;28;20031;-29
2023/01/25 12:57:59;;;;;;;24.15;9.38;;;0.60;99.90;;;;;;5085784;28;20032;-29
2023/01/25 13:00:47;;;;;;;24.83;10.65;;;0.60;99.90;;;;;;5085912;28;20031;-29
2023/01/25 13:03:31;;;;;;;26.13;9.68;;;0.70;99.90;;;;;;5080368;28;20350;-29
2023/01/25 13:06:32;;;;;;;26.02;10.50;;;0.70;99.90;;;;;;5082135;28;20024;-29
2023/01/25 13:09:15;;;;;;;23.90;8.98;;;0.70;99.90;;;;;;4983511;28;20060;-28
2023/01/25 13:11:43;;;;;;;22.48;9.70;;;0.70;99.90;;;;;;5075872;28;20115;-30
2023/01/25 13:14:15;;;;;;;30.92;10.07;;;0.70;99.90;;;;;;5083406;28;20032;-30
2023/01/25 13:16:42;;;;;;;23.48;8.98;;;0.70;99.90;;;;;;5078998;28;20123;-30
2023/01/25 13:19:17;;;;;;;21.80;9.93;;;0.70;99.90;;;;;;5086310;28;20405;-31
2023/01/25 13:21:45;;;;;;;28.38;8.85;;;0.70;99.90;;;;;;5085974;28;20396;-30
2023/01/25 13:24:19;;;;;;;26.73;9.82;;;0.80;99.90;;;;;;5079658;28;20270;-29